sensor_id;sensor_type;location;lat;lon;timestamp;P1;durP1;ratioP1;P2;durP2;ratioP2
35847;SDS011;22332;51.954;20.118;2023-12-04T00:02:11;19.90;;;12.30;;
35847;SDS011;22332;51.954;20.118;2023-12-04T00:05:16;24.20;;;13.60;;
35847;SDS011;22332;51.954;20.118;2023-12-04T00:08:22;25.00;;;14.40;;
35847;SDS011;22332;51.954;20.118;2023-12-04T00:11:28;24.90;;;14.00;;
35847;SDS011;22332;51.954;20.118;2023-12-04T00:14:33;24.50;;;14.30;;
35847;SDS011;22332;51.954;20.118;2023-12-04T00:17:39;24.10;;;12.90;;
35847;SDS011;22332;51.954;20.118;2023-12-04T00:20:44;28.10;;;14.70;;
35847;SDS011;22332;51.954;20.118;2023-12-04T00:23:50;25.50;;;14.60;;
35847;SDS011;22332;51.954;20.118;2023-12-04T00:26:56;24.10;;;14.10;;
35847;SDS011;22332;51.954;20.118;2023-12-04T00:30:01;24.00;;;13.40;;
35847;SDS011;22332;51.954;20.118;2023-12-04T00:33:08;22.40;;;13.20;;
35847;SDS011;22332;51.954;20.118;2023-12-04T00:36:14;27.10;;;14.30;;
35847;SDS011;22332;51.954;20.118;2023-12-04T00:39:20;25.30;;;13.50;;
35847;SDS011;22332;51.954;20.118;2023-12-04T00:42:26;22.80;;;12.20;;
35847;SDS011;22332;51.954;20.118;2023-12-04T00:45:31;24.60;;;13.50;;
35847;SDS011;22332;51.954;20.118;2023-12-04T00:48:37;23.80;;;13.20;;
35847;SDS011;22332;51.954;20.118;2023-12-04T00:51:43;22.10;;;12.60;;
35847;SDS011;22332;51.954;20.118;2023-12-04T00:54:48;21.40;;;11.50;;
35847;SDS011;22332;51.954;20.118;2023-12-04T00:57:54;19.90;;;11.70;;
35847;SDS011;22332;51.954;20.118;2023-12-04T01:00:59;21.50;;;11.50;;
35847;SDS011;22332;51.954;20.118;2023-12-04T01:04:05;17.30;;;10.00;;
35847;SDS011;22332;51.954;20.118;2023-12-04T01:07:11;18.50;;;10.90;;
35847;SDS011;22332;51.954;20.118;2023-12-04T01:10:16;20.50;;;11.90;;
35847;SDS011;22332;51.954;20.118;2023-12-04T01:13:22;20.80;;;11.20;;
35847;SDS011;22332;51.954;20.118;2023-12-04T01:16:28;19.80;;;11.80;;
35847;SDS011;22332;51.954;20.118;2023-12-04T01:19:33;22.50;;;11.90;;
35847;SDS011;22332;51.954;20.118;2023-12-04T01:22:39;19.60;;;11.30;;
35847;SDS011;22332;51.954;20.118;2023-12-04T01:25:45;16.10;;;9.20;;
35847;SDS011;22332;51.954;20.118;2023-12-04T01:28:50;17.70;;;10.10;;
35847;SDS011;22332;51.954;20.118;2023-12-04T01:31:56;18.20;;;10.30;;
35847;SDS011;22332;51.954;20.118;2023-12-04T01:35:01;15.70;;;9.70;;
35847;SDS011;22332;51.954;20.118;2023-12-04T01:38:07;16.00;;;9.80;;
35847;SDS011;22332;51.954;20.118;2023-12-04T01:41:13;19.60;;;10.50;;
35847;SDS011;22332;51.954;20.118;2023-12-04T01:44:18;17.00;;;10.10;;
35847;SDS011;22332;51.954;20.118;2023-12-04T01:47:25;18.90;;;10.90;;
35847;SDS011;22332;51.954;20.118;2023-12-04T01:50:31;21.30;;;10.70;;
35847;SDS011;22332;51.954;20.118;2023-12-04T01:53:40;18.70;;;10.00;;
35847;SDS011;22332;51.954;20.118;2023-12-04T01:56:46;17.40;;;9.20;;
35847;SDS011;22332;51.954;20.118;2023-12-04T01:59:52;18.30;;;10.30;;
35847;SDS011;22332;51.954;20.118;2023-12-04T02:02:59;20.50;;;10.40;;
35847;SDS011;22332;51.954;20.118;2023-12-04T02:06:05;19.50;;;10.40;;
35847;SDS011;22332;51.954;20.118;2023-12-04T02:09:13;18.30;;;10.70;;
35847;SDS011;22332;51.954;20.118;2023-12-04T02:12:19;21.60;;;11.30;;
35847;SDS011;22332;51.954;20.118;2023-12-04T02:15:24;19.80;;;10.80;;
35847;SDS011;22332;51.954;20.118;2023-12-04T02:18:30;18.30;;;10.50;;
35847;SDS011;22332;51.954;20.118;2023-12-04T02:21:36;20.90;;;11.00;;
35847;SDS011;22332;51.954;20.118;2023-12-04T02:24:42;18.20;;;10.50;;
35847;SDS011;22332;51.954;20.118;2023-12-04T02:27:49;22.30;;;12.30;;
35847;SDS011;22332;51.954;20.118;2023-12-04T02:30:57;23.70;;;12.60;;
35847;SDS011;22332;51.954;20.118;2023-12-04T02:34:05;22.50;;;11.00;;
35847;SDS011;22332;51.954;20.118;2023-12-04T02:37:12;19.60;;;10.10;;
35847;SDS011;22332;51.954;20.118;2023-12-04T02:40:18;20.30;;;10.50;;
35847;SDS011;22332;51.954;20.118;2023-12-04T02:43:24;19.00;;;10.70;;
35847;SDS011;22332;51.954;20.118;2023-12-04T02:46:30;21.10;;;11.40;;
35847;SDS011;22332;51.954;20.118;2023-12-04T02:49:35;20.10;;;11.60;;
35847;SDS011;22332;51.954;20.118;2023-12-04T02:52:41;17.70;;;11.40;;
35847;SDS011;22332;51.954;20.118;2023-12-04T02:55:46;30.60;;;17.10;;
35847;SDS011;22332;51.954;20.118;2023-12-04T02:58:52;31.70;;;13.70;;
35847;SDS011;22332;51.954;20.118;2023-12-04T03:01:58;33.40;;;14.60;;
35847;SDS011;22332;51.954;20.118;2023-12-04T03:05:04;315.30;;;105.60;;
35847;SDS011;22332;51.954;20.118;2023-12-04T03:08:10;273.40;;;96.10;;
35847;SDS011;22332;51.954;20.118;2023-12-04T03:11:15;261.60;;;87.70;;
35847;SDS011;22332;51.954;20.118;2023-12-04T03:14:21;41.70;;;22.60;;
35847;SDS011;22332;51.954;20.118;2023-12-04T03:17:27;23.70;;;13.20;;
35847;SDS011;22332;51.954;20.118;2023-12-04T03:20:33;31.90;;;18.20;;
35847;SDS011;22332;51.954;20.118;2023-12-04T03:23:38;22.00;;;13.00;;
35847;SDS011;22332;51.954;20.118;2023-12-04T03:26:44;25.70;;;16.00;;
35847;SDS011;22332;51.954;20.118;2023-12-04T03:29:49;22.70;;;13.00;;
35847;SDS011;22332;51.954;20.118;2023-12-04T03:32:55;26.90;;;17.30;;
35847;SDS011;22332;51.954;20.118;2023-12-04T03:36:01;26.30;;;17.30;;
35847;SDS011;22332;51.954;20.118;2023-12-04T03:39:07;26.50;;;16.50;;
35847;SDS011;22332;51.954;20.118;2023-12-04T03:42:12;24.40;;;13.50;;
35847;SDS011;22332;51.954;20.118;2023-12-04T03:45:18;25.90;;;16.20;;
35847;SDS011;22332;51.954;20.118;2023-12-04T03:48:24;22.00;;;13.50;;
35847;SDS011;22332;51.954;20.118;2023-12-04T03:51:29;22.90;;;14.00;;
35847;SDS011;22332;51.954;20.118;2023-12-04T03:54:35;24.80;;;13.40;;
35847;SDS011;22332;51.954;20.118;2023-12-04T03:57:40;24.50;;;12.90;;
35847;SDS011;22332;51.954;20.118;2023-12-04T04:00:47;25.50;;;13.80;;
35847;SDS011;22332;51.954;20.118;2023-12-04T04:03:53;20.10;;;11.60;;
35847;SDS011;22332;51.954;20.118;2023-12-04T04:06:59;23.90;;;13.70;;
35847;SDS011;22332;51.954;20.118;2023-12-04T04:10:05;25.70;;;15.60;;
35847;SDS011;22332;51.954;20.118;2023-12-04T04:13:11;25.30;;;14.40;;
35847;SDS011;22332;51.954;20.118;2023-12-04T04:16:17;22.80;;;13.70;;
35847;SDS011;22332;51.954;20.118;2023-12-04T04:19:22;333.80;;;107.50;;
35847;SDS011;22332;51.954;20.118;2023-12-04T04:22:28;146.60;;;45.70;;
35847;SDS011;22332;51.954;20.118;2023-12-04T04:25:37;260.20;;;71.20;;
35847;SDS011;22332;51.954;20.118;2023-12-04T04:28:42;230.00;;;66.30;;
35847;SDS011;22332;51.954;20.118;2023-12-04T04:31:48;158.30;;;47.00;;
35847;SDS011;22332;51.954;20.118;2023-12-04T04:34:54;376.00;;;97.50;;
35847;SDS011;22332;51.954;20.118;2023-12-04T04:37:59;198.70;;;52.90;;
35847;SDS011;22332;51.954;20.118;2023-12-04T04:41:05;391.90;;;95.40;;
35847;SDS011;22332;51.954;20.118;2023-12-04T04:44:11;516.50;;;134.80;;
35847;SDS011;22332;51.954;20.118;2023-12-04T04:47:16;861.10;;;251.40;;
35847;SDS011;22332;51.954;20.118;2023-12-04T04:50:22;815.80;;;251.10;;
35847;SDS011;22332;51.954;20.118;2023-12-04T04:53:28;585.60;;;173.40;;
35847;SDS011;22332;51.954;20.118;2023-12-04T04:56:33;953.40;;;326.70;;
35847;SDS011;22332;51.954;20.118;2023-12-04T04:59:39;636.30;;;218.30;;
35847;SDS011;22332;51.954;20.118;2023-12-04T05:02:44;325.70;;;100.10;;
35847;SDS011;22332;51.954;20.118;2023-12-04T05:05:50;222.20;;;84.00;;
35847;SDS011;22332;51.954;20.118;2023-12-04T05:08:55;290.00;;;139.70;;
35847;SDS011;22332;51.954;20.118;2023-12-04T05:12:01;126.00;;;56.10;;
35847;SDS011;22332;51.954;20.118;2023-12-04T05:15:08;58.30;;;26.70;;
35847;SDS011;22332;51.954;20.118;2023-12-04T05:18:14;43.90;;;22.10;;
35847;SDS011;22332;51.954;20.118;2023-12-04T05:21:19;89.50;;;39.60;;
35847;SDS011;22332;51.954;20.118;2023-12-04T05:24:26;332.60;;;105.70;;
35847;SDS011;22332;51.954;20.118;2023-12-04T05:27:31;437.10;;;133.10;;
35847;SDS011;22332;51.954;20.118;2023-12-04T05:30:37;212.70;;;59.10;;
35847;SDS011;22332;51.954;20.118;2023-12-04T05:33:42;136.10;;;38.60;;
35847;SDS011;22332;51.954;20.118;2023-12-04T05:36:48;109.70;;;36.70;;
35847;SDS011;22332;51.954;20.118;2023-12-04T05:39:53;133.90;;;41.30;;
35847;SDS011;22332;51.954;20.118;2023-12-04T05:42:59;211.10;;;63.50;;
35847;SDS011;22332;51.954;20.118;2023-12-04T05:46:05;420.90;;;128.40;;
35847;SDS011;22332;51.954;20.118;2023-12-04T05:49:10;183.50;;;52.50;;
35847;SDS011;22332;51.954;20.118;2023-12-04T05:52:16;104.30;;;34.70;;
35847;SDS011;22332;51.954;20.118;2023-12-04T05:55:22;105.70;;;38.40;;
35847;SDS011;22332;51.954;20.118;2023-12-04T05:58:27;130.00;;;49.60;;
35847;SDS011;22332;51.954;20.118;2023-12-04T06:01:33;75.20;;;29.40;;
35847;SDS011;22332;51.954;20.118;2023-12-04T06:04:38;82.00;;;32.80;;
35847;SDS011;22332;51.954;20.118;2023-12-04T06:07:44;406.40;;;129.50;;
35847;SDS011;22332;51.954;20.118;2023-12-04T06:10:49;364.80;;;144.70;;
35847;SDS011;22332;51.954;20.118;2023-12-04T06:13:55;283.00;;;171.00;;
35847;SDS011;22332;51.954;20.118;2023-12-04T06:17:00;1218.00;;;855.60;;
35847;SDS011;22332;51.954;20.118;2023-12-04T06:20:07;596.50;;;445.60;;
35847;SDS011;22332;51.954;20.118;2023-12-04T06:23:14;81.80;;;65.50;;
35847;SDS011;22332;51.954;20.118;2023-12-04T06:26:21;37.50;;;19.50;;
35847;SDS011;22332;51.954;20.118;2023-12-04T06:29:27;290.60;;;120.30;;
35847;SDS011;22332;51.954;20.118;2023-12-04T06:32:34;283.90;;;138.10;;
35847;SDS011;22332;51.954;20.118;2023-12-04T06:35:40;61.60;;;34.50;;
35847;SDS011;22332;51.954;20.118;2023-12-04T06:38:47;68.80;;;39.10;;
35847;SDS011;22332;51.954;20.118;2023-12-04T06:41:56;32.80;;;18.70;;
35847;SDS011;22332;51.954;20.118;2023-12-04T06:45:02;28.70;;;16.00;;
35847;SDS011;22332;51.954;20.118;2023-12-04T06:48:09;26.70;;;15.50;;
35847;SDS011;22332;51.954;20.118;2023-12-04T06:51:16;34.10;;;18.80;;
35847;SDS011;22332;51.954;20.118;2023-12-04T06:54:22;30.90;;;17.00;;
35847;SDS011;22332;51.954;20.118;2023-12-04T06:57:28;33.70;;;18.20;;
35847;SDS011;22332;51.954;20.118;2023-12-04T07:00:34;28.00;;;13.80;;
35847;SDS011;22332;51.954;20.118;2023-12-04T07:03:39;23.50;;;12.20;;
35847;SDS011;22332;51.954;20.118;2023-12-04T07:06:45;24.10;;;12.70;;
35847;SDS011;22332;51.954;20.118;2023-12-04T07:09:51;25.60;;;12.90;;
35847;SDS011;22332;51.954;20.118;2023-12-04T07:12:57;23.80;;;13.10;;
35847;SDS011;22332;51.954;20.118;2023-12-04T07:16:04;26.50;;;13.20;;
35847;SDS011;22332;51.954;20.118;2023-12-04T07:19:10;33.00;;;15.30;;
35847;SDS011;22332;51.954;20.118;2023-12-04T07:22:17;30.80;;;15.40;;
35847;SDS011;22332;51.954;20.118;2023-12-04T07:25:23;29.60;;;14.00;;
35847;SDS011;22332;51.954;20.118;2023-12-04T07:28:28;30.90;;;14.20;;
35847;SDS011;22332;51.954;20.118;2023-12-04T07:31:34;32.00;;;17.40;;
35847;SDS011;22332;51.954;20.118;2023-12-04T07:34:40;186.90;;;80.80;;
35847;SDS011;22332;51.954;20.118;2023-12-04T07:37:45;114.70;;;46.90;;
35847;SDS011;22332;51.954;20.118;2023-12-04T07:40:51;288.80;;;100.40;;
35847;SDS011;22332;51.954;20.118;2023-12-04T07:43:57;468.30;;;188.40;;
35847;SDS011;22332;51.954;20.118;2023-12-04T07:47:02;317.20;;;102.40;;
35847;SDS011;22332;51.954;20.118;2023-12-04T07:50:08;227.20;;;74.40;;
35847;SDS011;22332;51.954;20.118;2023-12-04T07:53:14;313.20;;;110.00;;
35847;SDS011;22332;51.954;20.118;2023-12-04T07:56:20;519.70;;;197.60;;
35847;SDS011;22332;51.954;20.118;2023-12-04T07:59:25;355.80;;;110.50;;
35847;SDS011;22332;51.954;20.118;2023-12-04T08:02:31;662.40;;;262.40;;
35847;SDS011;22332;51.954;20.118;2023-12-04T08:05:36;419.00;;;130.30;;
35847;SDS011;22332;51.954;20.118;2023-12-04T08:08:42;534.40;;;207.80;;
35847;SDS011;22332;51.954;20.118;2023-12-04T08:11:47;256.10;;;80.20;;
35847;SDS011;22332;51.954;20.118;2023-12-04T08:14:53;230.10;;;76.50;;
35847;SDS011;22332;51.954;20.118;2023-12-04T08:17:59;309.90;;;138.30;;
35847;SDS011;22332;51.954;20.118;2023-12-04T08:21:06;187.20;;;81.90;;
35847;SDS011;22332;51.954;20.118;2023-12-04T08:24:12;527.50;;;256.50;;
35847;SDS011;22332;51.954;20.118;2023-12-04T08:27:20;448.10;;;192.80;;
35847;SDS011;22332;51.954;20.118;2023-12-04T08:30:25;357.30;;;129.20;;
35847;SDS011;22332;51.954;20.118;2023-12-04T08:33:31;217.60;;;92.50;;
35847;SDS011;22332;51.954;20.118;2023-12-04T08:36:37;102.80;;;42.60;;
35847;SDS011;22332;51.954;20.118;2023-12-04T08:39:43;86.70;;;38.80;;
35847;SDS011;22332;51.954;20.118;2023-12-04T08:42:48;130.10;;;68.00;;
35847;SDS011;22332;51.954;20.118;2023-12-04T08:45:54;305.70;;;118.40;;
35847;SDS011;22332;51.954;20.118;2023-12-04T08:49:00;477.50;;;203.70;;
35847;SDS011;22332;51.954;20.118;2023-12-04T08:52:05;404.30;;;151.80;;
35847;SDS011;22332;51.954;20.118;2023-12-04T08:55:11;581.90;;;257.30;;
35847;SDS011;22332;51.954;20.118;2023-12-04T08:58:17;457.30;;;182.60;;
35847;SDS011;22332;51.954;20.118;2023-12-04T09:01:22;346.90;;;155.00;;
35847;SDS011;22332;51.954;20.118;2023-12-04T09:04:28;117.30;;;48.30;;
35847;SDS011;22332;51.954;20.118;2023-12-04T09:07:34;68.00;;;31.50;;
35847;SDS011;22332;51.954;20.118;2023-12-04T09:10:40;490.00;;;190.20;;
35847;SDS011;22332;51.954;20.118;2023-12-04T09:13:46;519.00;;;198.50;;
35847;SDS011;22332;51.954;20.118;2023-12-04T09:16:51;452.70;;;161.50;;
35847;SDS011;22332;51.954;20.118;2023-12-04T09:19:57;503.90;;;221.30;;
35847;SDS011;22332;51.954;20.118;2023-12-04T09:23:03;329.50;;;124.60;;
35847;SDS011;22332;51.954;20.118;2023-12-04T09:26:08;391.30;;;155.90;;
35847;SDS011;22332;51.954;20.118;2023-12-04T09:29:14;359.10;;;131.10;;
35847;SDS011;22332;51.954;20.118;2023-12-04T09:32:20;142.60;;;52.80;;
35847;SDS011;22332;51.954;20.118;2023-12-04T09:35:25;1711.00;;;783.50;;
35847;SDS011;22332;51.954;20.118;2023-12-04T09:38:31;599.00;;;226.30;;
35847;SDS011;22332;51.954;20.118;2023-12-04T09:41:38;268.10;;;92.30;;
35847;SDS011;22332;51.954;20.118;2023-12-04T09:44:45;126.50;;;47.00;;
35847;SDS011;22332;51.954;20.118;2023-12-04T09:47:56;84.40;;;35.40;;
35847;SDS011;22332;51.954;20.118;2023-12-04T09:51:02;148.50;;;70.70;;
35847;SDS011;22332;51.954;20.118;2023-12-04T09:54:08;81.70;;;38.50;;
35847;SDS011;22332;51.954;20.118;2023-12-04T09:57:15;133.70;;;69.20;;
35847;SDS011;22332;51.954;20.118;2023-12-04T10:00:22;104.10;;;52.50;;
35847;SDS011;22332;51.954;20.118;2023-12-04T10:03:29;102.10;;;55.10;;
35847;SDS011;22332;51.954;20.118;2023-12-04T10:06:35;61.60;;;34.00;;
35847;SDS011;22332;51.954;20.118;2023-12-04T10:09:42;114.60;;;67.10;;
35847;SDS011;22332;51.954;20.118;2023-12-04T10:12:50;53.70;;;30.80;;
35847;SDS011;22332;51.954;20.118;2023-12-04T10:15:56;41.40;;;22.30;;
35847;SDS011;22332;51.954;20.118;2023-12-04T10:19:17;52.20;;;31.90;;
35847;SDS011;22332;51.954;20.118;2023-12-04T10:22:25;34.90;;;20.20;;
35847;SDS011;22332;51.954;20.118;2023-12-04T10:25:31;50.70;;;31.20;;
35847;SDS011;22332;51.954;20.118;2023-12-04T10:28:37;51.30;;;29.00;;
35847;SDS011;22332;51.954;20.118;2023-12-04T10:31:42;54.20;;;32.00;;
35847;SDS011;22332;51.954;20.118;2023-12-04T10:34:48;119.40;;;68.00;;
35847;SDS011;22332;51.954;20.118;2023-12-04T10:37:55;49.50;;;28.10;;
35847;SDS011;22332;51.954;20.118;2023-12-04T10:41:05;99.10;;;51.20;;
35847;SDS011;22332;51.954;20.118;2023-12-04T10:44:17;57.40;;;31.90;;
35847;SDS011;22332;51.954;20.118;2023-12-04T10:47:23;44.60;;;26.30;;
35847;SDS011;22332;51.954;20.118;2023-12-04T10:50:29;71.00;;;47.20;;
35847;SDS011;22332;51.954;20.118;2023-12-04T10:53:35;60.80;;;37.60;;
35847;SDS011;22332;51.954;20.118;2023-12-04T10:56:44;41.10;;;25.60;;
35847;SDS011;22332;51.954;20.118;2023-12-04T10:59:53;39.70;;;23.50;;
35847;SDS011;22332;51.954;20.118;2023-12-04T11:03:03;37.00;;;21.40;;
35847;SDS011;22332;51.954;20.118;2023-12-04T11:06:12;92.30;;;50.50;;
35847;SDS011;22332;51.954;20.118;2023-12-04T11:09:22;65.20;;;33.60;;
35847;SDS011;22332;51.954;20.118;2023-12-04T11:12:29;58.10;;;33.90;;
35847;SDS011;22332;51.954;20.118;2023-12-04T11:15:38;48.90;;;25.10;;
35847;SDS011;22332;51.954;20.118;2023-12-04T11:18:48;42.80;;;22.80;;
35847;SDS011;22332;51.954;20.118;2023-12-04T11:21:55;36.80;;;20.00;;
35847;SDS011;22332;51.954;20.118;2023-12-04T11:25:02;34.80;;;19.80;;
35847;SDS011;22332;51.954;20.118;2023-12-04T11:28:10;35.90;;;20.70;;
35847;SDS011;22332;51.954;20.118;2023-12-04T11:31:18;42.30;;;21.60;;
35847;SDS011;22332;51.954;20.118;2023-12-04T11:34:24;40.60;;;24.40;;
35847;SDS011;22332;51.954;20.118;2023-12-04T11:37:30;335.40;;;138.10;;
35847;SDS011;22332;51.954;20.118;2023-12-04T11:40:36;483.90;;;222.50;;
35847;SDS011;22332;51.954;20.118;2023-12-04T11:43:44;531.30;;;222.50;;
35847;SDS011;22332;51.954;20.118;2023-12-04T11:47:02;540.30;;;203.70;;
35847;SDS011;22332;51.954;20.118;2023-12-04T11:50:09;222.20;;;78.60;;
35847;SDS011;22332;51.954;20.118;2023-12-04T11:53:16;186.80;;;66.30;;
35847;SDS011;22332;51.954;20.118;2023-12-04T11:56:23;129.50;;;47.70;;
35847;SDS011;22332;51.954;20.118;2023-12-04T11:59:28;348.60;;;130.10;;
35847;SDS011;22332;51.954;20.118;2023-12-04T12:02:39;628.10;;;282.90;;
35847;SDS011;22332;51.954;20.118;2023-12-04T12:05:50;325.90;;;118.70;;
35847;SDS011;22332;51.954;20.118;2023-12-04T12:08:56;321.80;;;127.40;;
35847;SDS011;22332;51.954;20.118;2023-12-04T12:12:02;319.10;;;154.20;;
35847;SDS011;22332;51.954;20.118;2023-12-04T12:15:10;181.00;;;90.70;;
35847;SDS011;22332;51.954;20.118;2023-12-04T12:18:16;81.80;;;39.70;;
35847;SDS011;22332;51.954;20.118;2023-12-04T12:21:21;52.00;;;27.70;;
35847;SDS011;22332;51.954;20.118;2023-12-04T12:24:28;42.40;;;21.50;;
35847;SDS011;22332;51.954;20.118;2023-12-04T12:27:34;36.00;;;19.70;;
35847;SDS011;22332;51.954;20.118;2023-12-04T12:30:40;36.50;;;20.70;;
35847;SDS011;22332;51.954;20.118;2023-12-04T12:33:48;34.30;;;18.90;;
35847;SDS011;22332;51.954;20.118;2023-12-04T12:36:55;36.90;;;19.80;;
35847;SDS011;22332;51.954;20.118;2023-12-04T12:40:00;31.70;;;18.00;;
35847;SDS011;22332;51.954;20.118;2023-12-04T12:43:08;35.30;;;18.70;;
35847;SDS011;22332;51.954;20.118;2023-12-04T12:46:13;34.70;;;18.70;;
35847;SDS011;22332;51.954;20.118;2023-12-04T12:49:21;37.70;;;20.20;;
35847;SDS011;22332;51.954;20.118;2023-12-04T12:52:27;38.00;;;20.80;;
35847;SDS011;22332;51.954;20.118;2023-12-04T12:55:32;38.80;;;21.50;;
35847;SDS011;22332;51.954;20.118;2023-12-04T12:58:42;38.50;;;20.70;;
35847;SDS011;22332;51.954;20.118;2023-12-04T13:01:48;38.60;;;21.50;;
35847;SDS011;22332;51.954;20.118;2023-12-04T13:04:55;41.00;;;21.50;;
35847;SDS011;22332;51.954;20.118;2023-12-04T13:08:01;39.10;;;21.20;;
35847;SDS011;22332;51.954;20.118;2023-12-04T13:11:07;42.00;;;22.60;;
35847;SDS011;22332;51.954;20.118;2023-12-04T13:14:12;39.50;;;21.70;;
35847;SDS011;22332;51.954;20.118;2023-12-04T13:17:18;44.40;;;23.10;;
35847;SDS011;22332;51.954;20.118;2023-12-04T13:20:23;38.50;;;20.90;;
35847;SDS011;22332;51.954;20.118;2023-12-04T13:23:29;40.80;;;21.80;;
35847;SDS011;22332;51.954;20.118;2023-12-04T13:26:34;42.40;;;22.30;;
35847;SDS011;22332;51.954;20.118;2023-12-04T13:29:40;37.90;;;21.00;;
35847;SDS011;22332;51.954;20.118;2023-12-04T13:32:46;40.40;;;21.70;;
35847;SDS011;22332;51.954;20.118;2023-12-04T13:35:53;40.70;;;21.00;;
35847;SDS011;22332;51.954;20.118;2023-12-04T13:38:58;39.50;;;21.80;;
35847;SDS011;22332;51.954;20.118;2023-12-04T13:42:04;39.90;;;22.00;;
35847;SDS011;22332;51.954;20.118;2023-12-04T13:45:28;40.00;;;22.40;;
35847;SDS011;22332;51.954;20.118;2023-12-04T13:48:34;64.10;;;31.00;;
35847;SDS011;22332;51.954;20.118;2023-12-04T13:51:43;72.60;;;33.70;;
35847;SDS011;22332;51.954;20.118;2023-12-04T13:54:51;74.80;;;32.90;;
35847;SDS011;22332;51.954;20.118;2023-12-04T13:57:57;54.70;;;26.50;;
35847;SDS011;22332;51.954;20.118;2023-12-04T14:01:13;48.60;;;24.30;;
35847;SDS011;22332;51.954;20.118;2023-12-04T14:04:25;50.70;;;24.20;;
35847;SDS011;22332;51.954;20.118;2023-12-04T14:07:30;46.10;;;22.60;;
35847;SDS011;22332;51.954;20.118;2023-12-04T14:10:36;48.90;;;22.60;;
35847;SDS011;22332;51.954;20.118;2023-12-04T14:13:41;36.60;;;19.50;;
35847;SDS011;22332;51.954;20.118;2023-12-04T14:16:47;41.40;;;21.10;;
35847;SDS011;22332;51.954;20.118;2023-12-04T14:19:52;38.50;;;21.20;;
35847;SDS011;22332;51.954;20.118;2023-12-04T14:22:58;43.30;;;24.10;;
35847;SDS011;22332;51.954;20.118;2023-12-04T14:26:08;50.10;;;26.10;;
35847;SDS011;22332;51.954;20.118;2023-12-04T14:29:13;55.60;;;27.20;;
35847;SDS011;22332;51.954;20.118;2023-12-04T14:32:18;56.70;;;27.50;;
35847;SDS011;22332;51.954;20.118;2023-12-04T14:35:24;57.00;;;27.80;;
35847;SDS011;22332;51.954;20.118;2023-12-04T14:38:30;53.80;;;26.80;;
35847;SDS011;22332;51.954;20.118;2023-12-04T14:41:35;55.30;;;26.80;;
35847;SDS011;22332;51.954;20.118;2023-12-04T14:44:41;54.30;;;25.60;;
35847;SDS011;22332;51.954;20.118;2023-12-04T14:47:46;51.90;;;25.90;;
35847;SDS011;22332;51.954;20.118;2023-12-04T14:50:55;46.10;;;23.60;;
35847;SDS011;22332;51.954;20.118;2023-12-04T14:54:00;42.40;;;22.90;;
35847;SDS011;22332;51.954;20.118;2023-12-04T14:57:23;43.80;;;22.90;;
35847;SDS011;22332;51.954;20.118;2023-12-04T15:00:56;206.80;;;79.10;;
35847;SDS011;22332;51.954;20.118;2023-12-04T15:04:16;77.10;;;35.20;;
35847;SDS011;22332;51.954;20.118;2023-12-04T15:07:51;49.90;;;24.60;;
35847;SDS011;22332;51.954;20.118;2023-12-04T15:11:19;47.60;;;23.80;;
35847;SDS011;22332;51.954;20.118;2023-12-04T15:14:46;43.80;;;22.20;;
35847;SDS011;22332;51.954;20.118;2023-12-04T15:17:57;45.50;;;23.70;;
35847;SDS011;22332;51.954;20.118;2023-12-04T15:21:17;46.20;;;23.10;;
35847;SDS011;22332;51.954;20.118;2023-12-04T15:24:24;46.90;;;23.30;;
35847;SDS011;22332;51.954;20.118;2023-12-04T15:27:30;47.00;;;23.20;;
35847;SDS011;22332;51.954;20.118;2023-12-04T15:30:35;48.80;;;22.50;;
35847;SDS011;22332;51.954;20.118;2023-12-04T15:33:44;64.60;;;29.70;;
35847;SDS011;22332;51.954;20.118;2023-12-04T15:36:50;50.10;;;24.20;;
35847;SDS011;22332;51.954;20.118;2023-12-04T15:39:55;45.10;;;21.90;;
35847;SDS011;22332;51.954;20.118;2023-12-04T15:43:01;47.50;;;22.80;;
35847;SDS011;22332;51.954;20.118;2023-12-04T15:46:07;46.80;;;22.10;;
35847;SDS011;22332;51.954;20.118;2023-12-04T15:49:13;48.20;;;22.60;;
35847;SDS011;22332;51.954;20.118;2023-12-04T15:52:19;48.50;;;23.60;;
35847;SDS011;22332;51.954;20.118;2023-12-04T15:55:27;58.40;;;26.00;;
35847;SDS011;22332;51.954;20.118;2023-12-04T15:58:33;56.80;;;28.10;;
35847;SDS011;22332;51.954;20.118;2023-12-04T16:01:39;89.30;;;41.60;;
35847;SDS011;22332;51.954;20.118;2023-12-04T16:04:44;69.60;;;31.40;;
35847;SDS011;22332;51.954;20.118;2023-12-04T16:07:50;59.20;;;27.30;;
35847;SDS011;22332;51.954;20.118;2023-12-04T16:10:55;60.70;;;28.10;;
35847;SDS011;22332;51.954;20.118;2023-12-04T16:14:01;56.80;;;27.00;;
35847;SDS011;22332;51.954;20.118;2023-12-04T16:17:07;58.10;;;25.80;;
35847;SDS011;22332;51.954;20.118;2023-12-04T16:20:12;55.60;;;25.60;;
35847;SDS011;22332;51.954;20.118;2023-12-04T16:23:19;60.60;;;27.20;;
35847;SDS011;22332;51.954;20.118;2023-12-04T16:26:24;59.80;;;27.60;;
35847;SDS011;22332;51.954;20.118;2023-12-04T16:29:30;51.60;;;25.00;;
35847;SDS011;22332;51.954;20.118;2023-12-04T16:32:36;56.60;;;24.70;;
35847;SDS011;22332;51.954;20.118;2023-12-04T16:35:43;52.60;;;26.10;;
35847;SDS011;22332;51.954;20.118;2023-12-04T16:38:49;58.60;;;26.20;;
35847;SDS011;22332;51.954;20.118;2023-12-04T16:41:55;53.10;;;23.80;;
35847;SDS011;22332;51.954;20.118;2023-12-04T16:45:01;57.30;;;25.30;;
35847;SDS011;22332;51.954;20.118;2023-12-04T16:48:07;72.30;;;32.20;;
35847;SDS011;22332;51.954;20.118;2023-12-04T16:51:13;61.60;;;27.70;;
35847;SDS011;22332;51.954;20.118;2023-12-04T16:54:18;60.80;;;26.40;;
35847;SDS011;22332;51.954;20.118;2023-12-04T16:57:24;65.00;;;27.70;;
35847;SDS011;22332;51.954;20.118;2023-12-04T17:00:31;86.20;;;37.20;;
35847;SDS011;22332;51.954;20.118;2023-12-04T17:03:37;126.40;;;54.10;;
35847;SDS011;22332;51.954;20.118;2023-12-04T17:06:43;118.90;;;50.80;;
35847;SDS011;22332;51.954;20.118;2023-12-04T17:09:49;103.30;;;45.40;;
35847;SDS011;22332;51.954;20.118;2023-12-04T17:12:55;97.30;;;43.90;;
35847;SDS011;22332;51.954;20.118;2023-12-04T17:16:00;97.50;;;41.60;;
35847;SDS011;22332;51.954;20.118;2023-12-04T17:19:06;81.30;;;35.00;;
35847;SDS011;22332;51.954;20.118;2023-12-04T17:22:13;72.50;;;30.60;;
35847;SDS011;22332;51.954;20.118;2023-12-04T17:25:18;83.60;;;37.20;;
35847;SDS011;22332;51.954;20.118;2023-12-04T17:28:25;110.90;;;44.50;;
35847;SDS011;22332;51.954;20.118;2023-12-04T17:31:30;89.60;;;36.30;;
35847;SDS011;22332;51.954;20.118;2023-12-04T17:34:36;70.70;;;29.50;;
35847;SDS011;22332;51.954;20.118;2023-12-04T17:37:42;62.60;;;28.50;;
35847;SDS011;22332;51.954;20.118;2023-12-04T17:40:47;67.50;;;27.70;;
35847;SDS011;22332;51.954;20.118;2023-12-04T17:43:55;63.20;;;26.30;;
35847;SDS011;22332;51.954;20.118;2023-12-04T17:47:01;62.00;;;26.30;;
35847;SDS011;22332;51.954;20.118;2023-12-04T17:50:16;64.10;;;26.90;;